createdAt,value
2019-02-18T00:01:28.693Z,81.00
2019-02-18T00:03:56.456Z,81.00
2019-02-18T00:06:24.236Z,80.80
2019-02-18T00:08:52.007Z,80.70
2019-02-18T00:11:19.775Z,81.00
2019-02-18T00:14:07.683Z,80.80
2019-02-18T00:16:36.260Z,80.60
2019-02-18T00:19:04.131Z,80.90
2019-02-18T00:21:31.924Z,80.90
2019-02-18T00:23:59.709Z,81.10
2019-02-18T00:26:27.496Z,81.40
2019-02-18T00:28:55.259Z,81.60
2019-02-18T00:31:33.506Z,81.70
2019-02-18T00:34:02.281Z,81.40
2019-02-18T00:36:30.859Z,81.10
2019-02-18T00:38:59.444Z,81.30
2019-02-18T00:41:28.045Z,81.20
2019-02-18T00:43:56.603Z,81.00
2019-02-18T00:46:44.498Z,81.00
2019-02-18T00:49:13.108Z,81.10
2019-02-18T00:52:00.731Z,81.40
2019-02-18T00:54:28.528Z,81.70
2019-02-18T00:56:57.101Z,81.40
2019-02-18T00:59:25.676Z,81.80
2019-02-18T01:01:54.270Z,81.90
2019-02-18T01:04:22.036Z,81.60
2019-02-18T01:06:49.843Z,81.40
2019-02-18T01:09:17.605Z,81.50
2019-02-18T01:11:45.363Z,81.50
2019-02-18T01:14:13.151Z,81.40
2019-02-18T01:16:40.916Z,81.40
2019-02-18T01:19:16.730Z,81.50
2019-02-18T01:22:03.824Z,81.50
2019-02-18T01:24:31.598Z,81.90
2019-02-18T01:26:59.672Z,81.70
2019-02-18T01:29:27.435Z,81.70
2019-02-18T01:31:55.283Z,81.80
2019-02-18T01:34:23.047Z,82.10
2019-02-18T01:36:50.827Z,82.30
2019-02-18T01:39:18.587Z,82.30
2019-02-18T01:41:46.351Z,82.50
2019-02-18T01:44:14.168Z,82.30
2019-02-18T01:46:42.050Z,82.50
2019-02-18T01:49:09.852Z,82.70
2019-02-18T01:51:37.639Z,82.80
2019-02-18T01:54:05.395Z,82.80
2019-02-18T01:56:33.168Z,82.50
2019-02-18T01:59:01.058Z,82.30
2019-02-18T02:01:28.873Z,82.50
2019-02-18T02:03:56.640Z,82.20
2019-02-18T02:06:24.520Z,82.20
2019-02-18T02:08:52.298Z,82.30
2019-02-18T02:11:20.090Z,82.60
2019-02-18T02:13:47.853Z,82.50
2019-02-18T02:16:15.764Z,82.10
2019-02-18T02:18:43.532Z,82.10
2019-02-18T02:21:11.334Z,82.50
2019-02-18T02:23:39.143Z,82.10
2019-02-18T02:26:07.004Z,82.20
2019-02-18T02:28:34.791Z,82.20
2019-02-18T02:31:04.684Z,82.70
2019-02-18T02:33:32.444Z,82.40
2019-02-18T02:36:00.228Z,82.90
2019-02-18T02:38:27.995Z,82.80
2019-02-18T02:41:15.158Z,82.90
2019-02-18T02:43:42.939Z,83.30
2019-02-18T02:46:10.730Z,83.40
2019-02-18T02:48:38.554Z,83.50
2019-02-18T02:51:06.309Z,83.40
2019-02-18T02:53:34.130Z,83.80
2019-02-18T02:56:01.928Z,83.90
2019-02-18T02:58:29.727Z,84.20
2019-02-18T03:00:57.494Z,84.10
2019-02-18T03:03:25.271Z,83.80
2019-02-18T03:05:53.039Z,83.90
2019-02-18T03:08:21.142Z,84.00
2019-02-18T03:10:49.041Z,83.80
2019-02-18T03:13:16.835Z,84.00
2019-02-18T03:15:44.607Z,83.60
2019-02-18T03:18:12.709Z,83.70
2019-02-18T03:20:40.490Z,83.60
2019-02-18T03:23:08.268Z,83.60
2019-02-18T03:25:55.345Z,83.70
2019-02-18T03:28:42.461Z,83.80
2019-02-18T03:31:18.472Z,83.90
2019-02-18T03:33:51.382Z,83.90
2019-02-18T03:36:19.484Z,83.90
2019-02-18T03:38:47.276Z,84.00
2019-02-18T03:41:16.330Z,83.90
2019-02-18T03:43:44.120Z,83.70
2019-02-18T03:46:11.915Z,83.80
2019-02-18T03:48:39.706Z,83.60
2019-02-18T03:51:07.493Z,83.60
2019-02-18T03:53:35.285Z,83.70
2019-02-18T03:56:03.105Z,83.60
2019-02-18T03:58:30.876Z,84.00
2019-02-18T04:00:58.675Z,84.00
2019-02-18T04:03:26.512Z,84.00
2019-02-18T04:05:54.321Z,84.00
2019-02-18T04:08:22.905Z,84.20
2019-02-18T04:10:50.696Z,84.20
2019-02-18T04:13:18.493Z,84.10
2019-02-18T04:15:47.224Z,84.20
2019-02-18T04:18:16.016Z,84.20
2019-02-18T04:20:43.779Z,84.10
2019-02-18T04:23:11.541Z,84.10
2019-02-18T04:25:39.336Z,84.20
2019-02-18T04:28:07.137Z,84.20
2019-02-18T04:30:35.020Z,84.20
2019-02-18T04:33:02.832Z,84.30
2019-02-18T04:35:30.619Z,84.30
2019-02-18T04:37:58.391Z,84.10
2019-02-18T04:40:26.177Z,84.00
2019-02-18T04:42:53.997Z,84.00
2019-02-18T04:45:21.814Z,84.00
2019-02-18T04:47:49.580Z,84.10
2019-02-18T04:50:17.401Z,84.10
2019-02-18T04:52:45.190Z,84.00
2019-02-18T04:55:13.059Z,84.10
2019-02-18T04:57:40.848Z,84.20
2019-02-18T05:00:08.792Z,84.20
2019-02-18T05:02:36.631Z,84.10
2019-02-18T05:05:04.712Z,83.80
2019-02-18T05:07:32.503Z,84.30
2019-02-18T05:10:00.395Z,83.90
2019-02-18T05:12:28.643Z,84.30
2019-02-18T05:14:56.445Z,84.50
2019-02-18T05:17:24.236Z,84.40
2019-02-18T05:19:52.272Z,84.50
2019-02-18T05:22:20.052Z,84.50
2019-02-18T05:24:47.856Z,84.50
2019-02-18T05:27:15.785Z,84.80
2019-02-18T05:29:43.595Z,84.60
2019-02-18T05:32:11.394Z,84.60
2019-02-18T05:34:39.160Z,84.80
2019-02-18T05:37:07.029Z,85.00
2019-02-18T05:39:34.856Z,85.00
2019-02-18T05:42:02.782Z,85.20
2019-02-18T05:44:30.598Z,85.10
2019-02-18T05:46:58.381Z,85.40
2019-02-18T05:49:26.157Z,85.40
2019-02-18T05:51:53.931Z,85.70
2019-02-18T05:54:22.076Z,85.50
2019-02-18T05:56:49.871Z,85.80
2019-02-18T05:59:17.673Z,85.90
2019-02-18T06:01:45.500Z,85.50
2019-02-18T06:04:13.294Z,85.60
2019-02-18T06:06:41.093Z,85.70
2019-02-18T06:09:30.082Z,85.80
2019-02-18T06:11:57.710Z,85.80
2019-02-18T06:14:25.489Z,86.10
2019-02-18T06:16:53.305Z,85.80
2019-02-18T06:19:21.375Z,85.90
2019-02-18T06:21:49.171Z,86.00
2019-02-18T06:24:16.966Z,85.90
2019-02-18T06:26:44.755Z,85.70
2019-02-18T06:29:12.533Z,85.40
2019-02-18T06:31:40.332Z,85.20
2019-02-18T06:34:08.169Z,85.50
2019-02-18T06:36:36.007Z,85.40
2019-02-18T06:39:23.080Z,85.90
2019-02-18T06:41:50.880Z,86.70
2019-02-18T06:44:21.710Z,87.30
2019-02-18T06:46:56.887Z,87.20
2019-02-18T06:49:26.357Z,87.20
2019-02-18T06:51:54.584Z,86.80
2019-02-18T06:54:22.379Z,86.60
2019-02-18T06:57:05.497Z,86.60
2019-02-18T06:59:36.931Z,87.00
2019-02-18T07:02:12.103Z,86.70
2019-02-18T07:04:44.995Z,86.60
2019-02-18T07:07:31.408Z,86.40
2019-02-18T07:10:06.325Z,86.20
2019-02-18T07:12:36.972Z,86.60
2019-02-18T07:15:05.545Z,86.30
2019-02-18T07:17:33.384Z,86.10
2019-02-18T07:20:01.211Z,86.30
2019-02-18T07:22:29.278Z,86.40
2019-02-18T07:24:57.043Z,86.50
2019-02-18T07:27:24.849Z,87.20
2019-02-18T07:29:52.619Z,87.30
2019-02-18T07:32:20.434Z,86.80
2019-02-18T07:34:48.196Z,86.70
2019-02-18T07:37:18.169Z,87.10
2019-02-18T07:39:45.974Z,86.90
2019-02-18T07:42:13.761Z,86.90
2019-02-18T07:44:41.585Z,86.80
2019-02-18T07:47:09.369Z,87.40
2019-02-18T07:49:37.157Z,86.60
2019-02-18T07:52:04.931Z,86.70
2019-02-18T07:54:32.709Z,86.60
2019-02-18T07:57:00.509Z,86.50
2019-02-18T07:59:28.355Z,86.30
2019-02-18T08:01:56.145Z,86.30
2019-02-18T08:04:23.912Z,86.30
2019-02-18T08:06:51.718Z,86.00
2019-02-18T08:09:19.503Z,85.40
2019-02-18T08:11:47.272Z,85.50
2019-02-18T08:14:15.137Z,85.20
2019-02-18T08:16:42.926Z,85.00
2019-02-18T08:19:10.720Z,84.90
2019-02-18T08:21:38.496Z,84.60
2019-02-18T08:24:06.272Z,83.80
2019-02-18T08:26:34.073Z,83.30
2019-02-18T08:29:04.013Z,82.90
2019-02-18T08:31:32.066Z,82.50
2019-02-18T08:34:00.252Z,82.10
2019-02-18T08:36:28.308Z,81.20
2019-02-18T08:38:56.079Z,80.80
2019-02-18T08:41:23.861Z,80.50
2019-02-18T08:43:51.636Z,80.60
2019-02-18T08:46:19.464Z,80.70
2019-02-18T08:48:47.240Z,80.90
2019-02-18T08:51:15.991Z,81.30
2019-02-18T08:53:43.800Z,81.10
2019-02-18T08:56:11.607Z,81.50
2019-02-18T08:58:39.400Z,82.00
2019-02-18T09:01:07.219Z,81.90
2019-02-18T09:03:35.013Z,81.80
2019-02-18T09:06:02.856Z,81.60
2019-02-18T09:08:30.665Z,81.30
2019-02-18T09:11:17.744Z,80.10
2019-02-18T09:13:45.540Z,80.30
2019-02-18T09:16:33.441Z,79.70
2019-02-18T09:19:04.165Z,79.60
2019-02-18T09:21:34.182Z,79.90
2019-02-18T09:24:33.329Z,79.00
2019-02-18T09:27:02.106Z,78.30
2019-02-18T09:29:30.745Z,77.80
2019-02-18T09:31:59.348Z,78.30
2019-02-18T09:34:28.006Z,78.40
2019-02-18T09:36:56.601Z,78.60
2019-02-18T09:39:33.881Z,78.90
2019-02-18T09:42:02.878Z,79.40
2019-02-18T09:44:31.619Z,79.70
2019-02-18T09:47:00.229Z,78.90
2019-02-18T09:49:28.826Z,78.90
2019-02-18T09:51:57.429Z,78.90
2019-02-18T09:54:26.028Z,79.80
2019-02-18T09:56:54.604Z,80.30
2019-02-18T09:59:23.199Z,79.70
2019-02-18T10:02:11.418Z,80.20
2019-02-18T10:04:39.999Z,80.30
2019-02-18T10:07:08.601Z,80.80
2019-02-18T10:09:37.221Z,81.10
2019-02-18T10:12:05.824Z,80.90
2019-02-18T10:14:34.454Z,81.00
2019-02-18T10:17:03.096Z,81.20
2019-02-18T10:19:31.700Z,81.40
2019-02-18T10:22:00.303Z,81.10
2019-02-18T10:24:28.921Z,80.10
2019-02-18T10:26:57.536Z,80.10
2019-02-18T10:29:26.126Z,79.90
2019-02-18T10:32:15.315Z,79.40
2019-02-18T10:34:44.261Z,79.90
2019-02-18T10:37:32.172Z,80.50
2019-02-18T10:40:02.139Z,80.10
2019-02-18T10:42:30.732Z,80.10
2019-02-18T10:44:59.373Z,79.20
2019-02-18T10:47:27.952Z,79.20
2019-02-18T10:49:56.534Z,78.80
2019-02-18T10:52:25.117Z,79.80
2019-02-18T10:54:53.725Z,80.00
2019-02-18T10:57:22.348Z,80.20
2019-02-18T10:59:50.966Z,80.70
2019-02-18T11:02:19.537Z,80.80
2019-02-18T11:04:48.133Z,81.10
2019-02-18T11:07:16.822Z,80.50
2019-02-18T11:09:45.403Z,81.10
2019-02-18T11:12:13.997Z,80.60
2019-02-18T11:14:42.735Z,80.50
2019-02-18T11:17:11.664Z,80.10
2019-02-18T11:19:40.267Z,79.80
2019-02-18T11:22:10.410Z,80.60
2019-02-18T11:24:39.276Z,80.30
2019-02-18T11:27:07.883Z,80.70
2019-02-18T11:29:36.495Z,80.20
2019-02-18T11:32:05.097Z,80.40
2019-02-18T11:34:33.688Z,80.20
2019-02-18T11:37:02.307Z,80.20
2019-02-18T11:39:30.910Z,80.30
2019-02-18T11:41:59.501Z,80.70
2019-02-18T11:44:28.091Z,80.00
2019-02-18T11:46:56.659Z,79.10
2019-02-18T11:49:25.259Z,79.70
2019-02-18T11:51:53.835Z,79.90
2019-02-18T11:54:22.744Z,79.20
2019-02-18T11:56:51.343Z,78.60
2019-02-18T11:59:24.308Z,78.80
2019-02-18T12:01:50.237Z,79.60
2019-02-18T12:04:18.836Z,80.00
2019-02-18T12:06:47.468Z,79.80
2019-02-18T12:09:17.841Z,79.40
2019-02-18T12:11:49.680Z,79.60
2019-02-18T12:14:18.526Z,79.60
2019-02-18T12:46:43.064Z,65.20
2019-02-18T12:49:11.004Z,72.80
2019-02-18T12:51:39.629Z,76.10
2019-02-18T12:54:08.493Z,76.00
2019-02-18T12:56:37.170Z,81.00
2019-02-18T12:59:05.847Z,77.90
2019-02-18T13:01:34.444Z,78.00
2019-02-18T13:04:03.177Z,78.40
2019-02-18T13:06:31.900Z,79.90
2019-02-18T13:09:01.690Z,80.40
2019-02-18T13:11:30.650Z,80.00
2019-02-18T13:13:59.358Z,80.10
2019-02-18T13:16:28.035Z,80.10
2019-02-18T13:18:56.730Z,80.20
2019-02-18T13:21:25.313Z,79.80
2019-02-18T13:23:54.147Z,79.80
2019-02-18T13:26:23.170Z,80.00
2019-02-18T13:28:51.775Z,78.90
2019-02-18T13:31:20.459Z,79.30
2019-02-18T13:33:49.072Z,78.90
2019-02-18T13:36:17.731Z,79.40
2019-02-18T13:38:46.413Z,79.60
2019-02-18T13:41:15.117Z,79.10
2019-02-18T13:43:43.742Z,79.40
2019-02-18T13:46:12.824Z,79.70
2019-02-18T13:48:41.448Z,78.80
2019-02-18T13:51:10.084Z,79.00
2019-02-18T13:53:38.730Z,79.70
2019-02-18T13:56:08.270Z,79.20
2019-02-18T13:58:36.895Z,78.80
2019-02-18T14:01:06.223Z,78.50
2019-02-18T14:03:34.974Z,79.20
2019-02-18T14:06:06.847Z,78.20
2019-02-18T14:08:35.728Z,77.40
2019-02-18T14:11:04.408Z,76.60
2019-02-18T14:13:33.007Z,77.60
2019-02-18T14:16:02.048Z,77.20
2019-02-18T14:18:30.635Z,77.00
2019-02-18T14:20:59.436Z,77.20
2019-02-18T14:23:28.075Z,78.20
2019-02-18T14:25:56.677Z,78.30
2019-02-18T14:28:29.900Z,78.00
2019-02-18T14:30:58.878Z,77.80
2019-02-18T14:33:27.509Z,78.10
2019-02-18T14:35:56.116Z,77.70
2019-02-18T14:38:24.778Z,77.60
2019-02-18T14:40:53.372Z,77.70
2019-02-18T14:43:22.328Z,77.50
2019-02-18T14:45:51.371Z,77.50
2019-02-18T14:48:20.017Z,77.10
2019-02-18T14:50:56.331Z,77.20
2019-02-18T14:53:18.977Z,77.10
2019-02-18T14:55:47.641Z,77.30
2019-02-18T14:58:18.649Z,77.30
2019-02-18T15:00:47.646Z,76.90
2019-02-18T15:03:17.526Z,76.90
2019-02-18T15:05:46.123Z,77.20
2019-02-18T15:08:17.020Z,77.60
2019-02-18T15:10:45.645Z,76.90
2019-02-18T15:13:15.305Z,77.20
2019-02-18T15:15:44.259Z,78.00
2019-02-18T15:18:12.836Z,77.90
2019-02-18T15:20:41.822Z,79.00
2019-02-18T15:23:10.415Z,78.10
2019-02-18T15:25:39.097Z,78.50
2019-02-18T15:28:07.700Z,78.50
2019-02-18T15:30:36.312Z,78.50
2019-02-18T15:33:07.869Z,78.90
2019-02-18T15:35:36.532Z,79.00
2019-02-18T15:38:05.164Z,79.90
2019-02-18T15:40:33.763Z,80.10
2019-02-18T15:43:05.770Z,80.20
2019-02-18T15:45:34.809Z,80.30
2019-02-18T15:48:06.251Z,80.60
2019-02-18T15:50:34.965Z,80.60
2019-02-18T15:53:06.450Z,80.50
2019-02-18T15:55:35.101Z,80.40
2019-02-18T15:58:03.879Z,80.20
2019-02-18T16:00:32.772Z,80.30
2019-02-18T16:03:01.499Z,80.90
2019-02-18T16:05:30.198Z,81.30
2019-02-18T16:07:58.887Z,81.20
2019-02-18T16:10:27.548Z,82.80
2019-02-18T16:12:58.628Z,84.00
2019-02-18T16:15:27.549Z,84.90
2019-02-18T16:17:57.156Z,85.70
2019-02-18T16:20:25.909Z,86.30
2019-02-18T16:22:54.831Z,86.90
2019-02-18T16:25:23.471Z,87.30
2019-02-18T16:27:52.089Z,87.70
2019-02-18T16:30:21.151Z,88.30
2019-02-18T16:32:49.833Z,89.00
2019-02-18T16:35:18.484Z,89.30
2019-02-18T16:37:47.171Z,89.60
2019-02-18T16:40:16.910Z,90.00
2019-02-18T16:42:45.578Z,90.10
2019-02-18T16:45:14.593Z,90.40
2019-02-18T16:47:43.627Z,90.50
2019-02-18T16:50:13.952Z,90.80
2019-02-18T16:52:42.592Z,91.00
2019-02-18T16:55:11.625Z,91.10
2019-02-18T16:57:40.200Z,91.20
2019-02-18T17:00:19.635Z,91.50
2019-02-18T17:02:48.272Z,91.60
2019-02-18T17:05:18.100Z,91.60
2019-02-18T17:07:46.464Z,91.70
2019-02-18T17:10:15.456Z,91.80
2019-02-18T17:12:44.054Z,91.70
2019-02-18T17:15:12.764Z,91.80
2019-02-18T17:17:41.481Z,92.00
2019-02-18T17:20:10.070Z,92.00
2019-02-18T17:22:38.688Z,92.00
2019-02-18T17:25:07.713Z,92.00
2019-02-18T17:27:36.867Z,91.90
2019-02-18T17:30:07.137Z,91.90
2019-02-18T17:32:35.780Z,91.90
2019-02-18T17:35:05.111Z,92.00
2019-02-18T17:37:33.715Z,92.00
2019-02-18T17:40:02.432Z,92.10
2019-02-18T17:42:31.032Z,92.50
2019-02-18T17:45:04.461Z,92.20
2019-02-18T17:47:33.671Z,92.40
2019-02-18T17:50:03.268Z,92.30
2019-02-18T17:52:31.896Z,92.50
2019-02-18T17:55:02.626Z,92.50
2019-02-18T17:57:30.895Z,92.60
2019-02-18T17:59:59.893Z,92.40
2019-02-18T18:02:28.517Z,92.50
2019-02-18T18:04:57.180Z,92.50
2019-02-18T18:07:25.809Z,92.60
2019-02-18T18:09:54.483Z,92.70
2019-02-18T18:12:23.116Z,92.90
2019-02-18T18:14:52.583Z,92.90
2019-02-18T18:17:21.248Z,92.80
2019-02-18T18:19:52.293Z,92.90
2019-02-18T18:22:20.957Z,92.80
2019-02-18T18:24:49.659Z,92.70
2019-02-18T18:27:18.271Z,92.40
2019-02-18T18:29:47.330Z,92.40
2019-02-18T18:32:16.073Z,92.20
2019-02-18T18:34:44.684Z,91.80
2019-02-18T18:37:13.325Z,92.20
2019-02-18T18:39:42.037Z,92.70
2019-02-18T18:42:11.808Z,93.00
2019-02-18T18:44:40.508Z,93.20
2019-02-18T18:47:09.452Z,93.30
2019-02-18T18:49:38.353Z,93.20
2019-02-18T18:52:07.008Z,93.10
2019-02-18T18:54:35.608Z,93.00
2019-02-18T18:57:04.553Z,92.80
2019-02-18T18:59:33.181Z,92.60
2019-02-18T19:02:02.231Z,92.30
2019-02-18T19:04:31.221Z,92.10
2019-02-18T19:06:59.939Z,92.50
2019-02-18T19:09:28.545Z,92.30
2019-02-18T19:11:57.191Z,92.30
2019-02-18T19:14:26.089Z,92.10
2019-02-18T19:16:54.687Z,92.10
2019-02-18T19:19:23.322Z,91.80
2019-02-18T19:21:52.036Z,91.70
2019-02-18T19:24:20.717Z,91.70
2019-02-18T19:26:49.324Z,91.60
2019-02-18T19:29:18.017Z,91.40
2019-02-18T19:31:46.687Z,91.70
2019-02-18T19:34:15.617Z,91.80
2019-02-18T19:36:44.271Z,91.90
2019-02-18T19:39:12.907Z,91.60
2019-02-18T19:41:41.535Z,91.70
2019-02-18T19:44:10.175Z,91.70
2019-02-18T19:46:38.797Z,91.70
2019-02-18T19:49:07.438Z,91.70
2019-02-18T19:51:36.087Z,91.70
2019-02-18T19:54:04.695Z,91.80
2019-02-18T19:56:33.313Z,92.20
2019-02-18T19:59:01.921Z,92.70
2019-02-18T20:01:32.510Z,92.60
2019-02-18T20:04:03.603Z,92.60
2019-02-18T20:06:51.653Z,92.50
2019-02-18T20:09:20.310Z,92.50
2019-02-18T20:11:48.934Z,92.60
2019-02-18T20:14:17.572Z,92.60
2019-02-18T20:16:46.184Z,92.80
2019-02-18T20:19:15.073Z,92.80
2019-02-18T20:21:43.697Z,92.60
2019-02-18T20:24:12.315Z,92.60
2019-02-18T20:26:41.400Z,92.60
2019-02-18T20:29:09.999Z,92.50
2019-02-18T20:31:38.632Z,92.40
2019-02-18T20:34:07.282Z,92.40
2019-02-18T20:36:35.884Z,93.00
2019-02-18T20:39:23.826Z,92.60
2019-02-18T20:41:52.479Z,92.60
2019-02-18T20:44:21.069Z,92.60
2019-02-18T20:46:49.772Z,92.60
2019-02-18T20:49:37.763Z,92.60
2019-02-18T20:52:06.387Z,92.40
2019-02-18T20:54:35.060Z,92.50
2019-02-18T20:57:06.305Z,92.50
2019-02-18T20:59:34.983Z,93.30
2019-02-18T21:02:04.093Z,93.50
2019-02-18T21:04:32.732Z,94.20
2019-02-18T21:07:20.668Z,94.70
2019-02-18T21:09:49.324Z,95.00
2019-02-18T21:12:37.285Z,95.20
2019-02-18T21:15:06.080Z,95.30
2019-02-18T21:17:34.725Z,95.40
2019-02-18T21:20:03.615Z,95.60
2019-02-18T21:22:32.288Z,95.70
2019-02-18T21:25:06.858Z,96.00
2019-02-18T21:27:35.440Z,95.80
2019-02-18T21:30:04.400Z,95.70
2019-02-18T21:32:32.976Z,95.80
2019-02-18T21:35:20.889Z,95.40
2019-02-18T21:37:49.470Z,94.90
2019-02-18T21:40:18.179Z,94.80
2019-02-18T21:42:46.930Z,95.00
2019-02-18T21:45:36.368Z,95.00
2019-02-18T21:48:08.964Z,94.40
2019-02-18T21:50:41.943Z,94.40
2019-02-18T21:53:08.055Z,94.60
2019-02-18T21:55:42.623Z,94.60
2019-02-18T21:58:16.751Z,94.80
2019-02-18T22:00:47.242Z,94.80
2019-02-18T22:03:23.816Z,95.10
2019-02-18T22:06:03.458Z,95.20
2019-02-18T22:08:34.475Z,95.30
2019-02-18T22:11:05.492Z,95.40
2019-02-18T22:13:34.092Z,95.30
2019-02-18T22:16:02.768Z,95.20
2019-02-18T22:18:31.376Z,95.20
2019-02-18T22:20:59.983Z,95.30
2019-02-18T22:23:28.591Z,95.10
2019-02-18T22:25:57.165Z,95.20
2019-02-18T22:28:25.745Z,95.30
2019-02-18T22:30:54.329Z,95.10
2019-02-18T22:33:22.919Z,95.00
2019-02-18T22:35:51.496Z,94.90
2019-02-18T22:38:20.089Z,94.70
2019-02-18T22:40:48.744Z,94.80
2019-02-18T22:43:17.399Z,94.70
2019-02-18T22:45:45.959Z,94.60
2019-02-18T22:48:14.734Z,94.40
2019-02-18T22:50:43.292Z,94.00
2019-02-18T22:53:11.893Z,94.00
2019-02-18T22:55:40.485Z,94.00
2019-02-18T22:58:09.085Z,94.00
2019-02-18T23:00:58.444Z,94.00
2019-02-18T23:03:27.053Z,94.10
2019-02-18T23:05:55.616Z,94.20
2019-02-18T23:08:24.204Z,94.10
2019-02-18T23:10:52.847Z,94.30
2019-02-18T23:13:21.695Z,94.30
2019-02-18T23:15:50.251Z,94.40
2019-02-18T23:18:18.829Z,94.50
2019-02-18T23:20:47.595Z,94.40
2019-02-18T23:23:17.304Z,94.40
2019-02-18T23:26:05.226Z,94.50
2019-02-18T23:28:33.853Z,94.60
2019-02-18T23:31:04.164Z,94.80
2019-02-18T23:33:32.993Z,94.70
2019-02-18T23:36:04.414Z,94.60
2019-02-18T23:38:32.990Z,94.20
2019-02-18T23:41:01.654Z,94.10
2019-02-18T23:43:30.248Z,94.10
2019-02-18T23:45:58.829Z,94.10
2019-02-18T23:48:27.411Z,94.00
2019-02-18T23:50:55.995Z,94.20
2019-02-18T23:53:24.578Z,94.30
2019-02-18T23:55:53.158Z,94.40
2019-02-18T23:58:21.836Z,94.40
